METAR Data
IDs: Format: Raw Decoded Include TAF

Data at: 1845 UTC 16 Oct 2021

KT35 161835Z AUTO 04009G14KT 10SM CLR 22/06 A3033 RMK AO2 T02210056
KT35 161815Z AUTO 36011G17KT 10SM CLR 22/05 A3034 RMK AO2 T02150045
KT35 161755Z AUTO 01010G15KT 350V050 10SM CLR 21/06 A3035 RMK AO2 T02110063 10212 20098
KT35 161735Z AUTO 02006G14KT 10SM CLR 21/06 A3036 RMK AO2 T02080060
KT35 161715Z AUTO 02009G14KT 10SM CLR 21/05 A3037 RMK AO2 T02060054
KT35 161655Z AUTO 04009G16KT 10SM CLR 20/05 A3037 RMK AO2 T02040046
KT35 161635Z AUTO 02008KT 10SM CLR 20/07 A3037 RMK AO2 T01990065
KT35 161615Z AUTO 04007KT 10SM CLR 20/08 A3038 RMK AO2 T01950077
KT35 161555Z AUTO 03007KT 10SM CLR 19/08 A3038 RMK AO2 T01870084
KT35 161535Z AUTO 04006KT 10SM CLR 18/09 A3038 RMK AO2 T01810090
KT35 161515Z AUTO 03006KT 10SM CLR 17/09 A3038 RMK AO2 T01720094
KT35 161455Z AUTO 02007KT 10SM CLR 16/10 A3037 RMK AO2 T01620095
KT35 161435Z AUTO 02008KT 10SM CLR 16/09 A3037 RMK AO2 T01550092
KT35 161415Z AUTO 35005KT 10SM CLR 15/10 A3037 RMK AO2 T01450096
KT35 161355Z AUTO 32004KT 10SM CLR 13/09 A3036 RMK AO2 T01300091
KT35 161335Z AUTO 31004KT 10SM CLR 12/09 A3035 RMK AO2 T01210090
KT35 161315Z AUTO 32004KT 10SM CLR 11/09 A3034 RMK AO2 T01110090
KT35 161255Z AUTO 32003KT 10SM CLR 10/09 A3034 RMK AO2 T01010085
KT35 161235Z AUTO 33004KT 10SM CLR 10/08 A3033 RMK AO2 T01010082
KT35 161215Z AUTO 31004KT 10SM CLR 10/09 A3033 RMK AO2 T01030085
KT35 161155Z AUTO 32004KT 10SM CLR 10/08 A3032 RMK AO2 T01010083 10150 20101
KT35 161135Z AUTO 00000KT 10SM CLR 11/09 A3031 RMK AO2 T01060087
KT35 161115Z AUTO 32003KT 10SM CLR 11/09 A3030 RMK AO2 T01100090
KT35 161055Z AUTO 00000KT 10SM CLR 11/09 A3029 RMK AO2 T01070087
KT35 161035Z AUTO 33004KT 10SM CLR 11/09 A3029 RMK AO2 T01100089
KT35 161015Z AUTO 34004KT 10SM CLR 12/09 A3029 RMK AO2 T01150090
KT35 160955Z AUTO 34004KT 10SM CLR 12/09 A3028 RMK AO2 T01170090
KT35 160935Z AUTO 35004KT 10SM CLR 12/09 A3027 RMK AO2 T01210090
KT35 160915Z AUTO 34006KT 10SM CLR 12/09 A3026 RMK AO2 T01240092
KT35 160855Z AUTO 36006KT 10SM CLR 13/09 A3026 RMK AO2 T01270091
KT35 160835Z AUTO 36006KT 10SM CLR 13/09 A3026 RMK AO2 T01280093
KT35 160815Z AUTO 36006KT 10SM CLR 13/10 A3026 RMK AO2 T01300095
KT35 160755Z AUTO 35006KT 10SM CLR 13/10 A3027 RMK AO2 T01300095
KT35 160735Z AUTO 35005KT 10SM CLR 13/10 A3026 RMK AO2 T01320098
KT35 160715Z AUTO 35005KT 10SM CLR 14/10 A3026 RMK AO2 T01350100
KT35 160655Z AUTO 35006KT 10SM CLR 14/10 A3026 RMK AO2 T01420100
KT35 160635Z AUTO 10SM CLR 14/10 A3025 RMK AO2 T01430100
KT35 160615Z AUTO 34006KT 10SM CLR 15/10 A3025 RMK AO2 T01490100
KT35 160555Z AUTO 35006KT 10SM CLR 15/10 A3024 RMK AO2 T01500101 10230 20150 403090150
KT35 160535Z AUTO 34007KT 10SM CLR 16/10 A3024 RMK AO2 T01570101
KT35 160515Z AUTO 34006KT 10SM CLR 16/10 A3024 RMK AO2 T01600102
KT35 160455Z AUTO 10SM CLR 16/11 A3023 RMK AO2 T01600105
KT35 160435Z AUTO 34006KT 10SM CLR 17/11 A3022 RMK AO2 T01650105
KT35 160415Z AUTO 35007KT 10SM CLR 17/11 A3022 RMK AO2 T01700106
KT35 160355Z AUTO 35007KT 10SM CLR 18/11 A3021 RMK AO2 T01760107
KT35 160335Z AUTO 35010KT 10SM CLR 18/12 A3019 RMK AO2 T01810115
KT35 160315Z AUTO 35008KT 10SM CLR 18/12 A3018 RMK AO2 T01810122
KT35 160255Z AUTO 34006KT 10SM CLR 18/13 A3017 RMK AO2 T01820130
KT35 160235Z AUTO 34006KT 10SM CLR 19/13 A3015 RMK AO2 T01890131
KT35 160215Z AUTO 35008KT 10SM CLR 19/13 A3014 RMK AO2 T01920133
KT35 160155Z AUTO 35008KT 10SM CLR 20/14 A3013 RMK AO2 T01950135
KT35 160135Z AUTO 34010KT 10SM CLR 20/14 A3012 RMK AO2 T02000139
KT35 160115Z AUTO 34008KT 10SM CLR 21/14 A3011 RMK AO2 T02070135
KT35 160055Z AUTO 35012KT 10SM CLR 21/14 A3010 RMK AO2 T02110139
KT35 160035Z AUTO 35008KT 10SM CLR 22/14 A3009 RMK AO2 T02150143
KT35 160015Z AUTO 36009G16KT 10SM CLR 22/15 A3008 RMK AO2 T02210150
KT35 152355Z AUTO 36011G18KT 10SM CLR 23/15 A3007 RMK AO2 T02300146 10309 20230
KT35 152335Z AUTO 36013G16KT 10SM CLR 24/16 A3005 RMK AO2 T02350156
KT35 152315Z AUTO 35013G20KT 10SM CLR 23/16 A3005 RMK AO2 T02340156
KT35 152255Z AUTO 35012G19KT 10SM CLR 24/16 A3004 RMK AO2 T02370157
KT35 152235Z AUTO 35018G23KT 10SM CLR 24/16 A3003 RMK AO2 T02440161
KT35 152215Z AUTO 36017G24KT 10SM CLR 25/16 A3002 RMK AO2 T02530164
KT35 152155Z AUTO 34016G24KT 10SM CLR 25/17 A3001 RMK AO2 T02530165
KT35 152135Z AUTO 36014G24KT 10SM CLR 25/17 A3001 RMK AO2 T02530166
KT35 152115Z AUTO 35018G24KT 10SM CLR 26/17 A3001 RMK AO2 T02610167
KT35 152055Z AUTO 33019G23KT 10SM CLR 26/17 A3000 RMK AO2 T02620168
KT35 152035Z AUTO 34015G23KT 10SM CLR 26/18 A3000 RMK AO2 T02600175
KT35 152015Z AUTO 34016G23KT 10SM CLR 26/18 A2999 RMK AO2 T02590178
KT35 151955Z AUTO 35016G24KT 10SM SCT042 27/19 A2998 RMK AO2 T02700187
KT35 151935Z AUTO 34017G21KT 10SM SCT042 28/19 A2998 RMK AO2 T02800194
KT35 151915Z AUTO 33015G22KT 10SM CLR 29/20 A2997 RMK AO2 T02850202
KT35 151855Z AUTO 34017G21KT 10SM SCT033 SCT039 SCT047 29/22 A2997 RMK AO2 T02930216
KT35 151835Z AUTO 34018G21KT 10SM SCT035 31/21 A2997 RMK AO2 T03090213
KT35 151815Z AUTO 30010G15KT 10SM SCT035 SCT048 SCT080 30/22 A2997 RMK AO2 T02980217
KT35 151755Z AUTO 31011KT 10SM SCT027 SCT036 BKN060 29/22 A2998 RMK AO2 T02880220 10294 20210
KT35 151735Z AUTO 29009KT 10SM SCT025 BKN034 OVC060 29/22 A2998 RMK AO2 T02860222
KT35 151715Z AUTO 31008KT 10SM BKN025 BKN034 29/23 A2998 RMK AO2 T02920226
KT35 151655Z AUTO 27010G15KT 10SM BKN021 29/23 A2999 RMK AO2 T02900230
KT35 151635Z AUTO 26006KT 10SM SCT013 SCT019 28/23 A2998 RMK AO2 T02770232
KT35 151615Z AUTO 27007KT 10SM BKN011 BKN017 27/23 A2999 RMK AO2 T02650231
KT35 151555Z AUTO 27007KT 10SM OVC009 25/23 A2999 RMK AO2 T02520227
KT35 151535Z AUTO 26007KT 10SM OVC009 25/23 A2998 RMK AO2 T02470227
KT35 151515Z AUTO 23007KT 10SM OVC007 24/23 A2997 RMK AO2 T02420231
KT35 151455Z AUTO 25004KT 7SM BKN007 BKN047 23/23 A2996 RMK AO2 T02330227
KT35 151435Z AUTO 25003KT 5SM BR SCT002 SCT009 BKN047 23/22 A2996 RMK AO2 T02260222
KT35 151415Z AUTO 19004KT 2SM BR OVC002 22/22 A2995 RMK AO2 T02220218
KT35 151355Z AUTO 19004KT 2SM BR OVC002 22/22 A2994 RMK AO2 T02180215
KT35 151335Z AUTO 00000KT 4SM BR BKN002 OVC050 22/21 A2994 RMK AO2 T02170213
KT35 151315Z AUTO 00000KT 1 1/2SM BR OVC002 21/21 A2994 RMK AO2 T02130210
KT35 151255Z AUTO 00000KT 1/2SM FG OVC002 21/21 A2993 RMK AO2 T02120208
KT35 151235Z AUTO 26003KT 1SM BR OVC002 21/21 A2992 RMK AO2 T02100206
KT35 151215Z AUTO 26004KT 2SM BR OVC002 21/21 A2992 RMK AO2 T02100206
KT35 151155Z AUTO 00000KT 4SM BR OVC002 21/21 A2991 RMK AO2 T02100205 10225 20208
KT35 151135Z AUTO 22003KT 1SM BR OVC002 21/21 A2990 RMK AO2 T02100205
KT35 151115Z AUTO 20004KT 1/4SM FG OVC002 21/21 A2989 RMK AO2 T02100205
KT35 151055Z AUTO 19004KT 1/4SM FG OVC002 21/21 A2989 RMK AO2 T02100206
KT35 151035Z AUTO 21003KT 1/4SM FG OVC002 21/21 A2988 RMK AO2 T02100205
KT35 151015Z AUTO 19003KT 1/2SM FG OVC002 21/21 A2988 RMK AO2 T02100205
KT35 150955Z AUTO 00000KT 7SM OVC002 21/21 A2988 RMK AO2 T02110206
KT35 150935Z AUTO 19003KT 7SM BKN002 21/21 A2987 RMK AO2 T02110206
KT35 150920Z AUTO 20003KT 5SM BR BKN002 21/21 A2987 RMK AO2 T02120207
KT35 150855Z AUTO 18003KT 7SM SCT002 21/21 A2987 RMK AO2 T02120207
KT35 150835Z AUTO 18003KT 7SM CLR 21/21 A2987 RMK AO2 T02120206
KT35 150815Z AUTO 18004KT 7SM CLR 22/21 A2987 RMK AO2 T02150208
KT35 150755Z AUTO 16003KT 10SM CLR 22/21 A2987 RMK AO2 T02160210
KT35 150735Z AUTO 19003KT 10SM CLR 22/21 A2987 RMK AO2 T02170210
KT35 150715Z AUTO 18004KT 10SM CLR 22/21 A2987 RMK AO2 T02180211
KT35 150655Z AUTO 19003KT 10SM CLR 22/21 A2987 RMK AO2 T02200211